Time;durP1;ratioP1;P1;durP2;ratioP2;P2;SDS_P1;SDS_P2;PMS_P1;PMS_P2;Temp;Humidity;BMP_temperature;BMP_pressure;BME280_temperature;BME280_humidity;BME280_pressure;Samples;Min_cycle;Max_cycle;Signal;HPM_P1;HPM_P2
2021/09/25 00:00:31;;;;;;;12.18;4.67;;;;;;;12.69;84.25;100252.90;1642495;84;26142;-77
2021/09/25 00:03:02;;;;;;;19.98;5.90;;;;;;;12.72;84.29;100249.80;1680137;83;25772;-77
2021/09/25 00:05:36;;;;;;;17.35;4.90;;;;;;;12.75;84.46;100252.56;1704959;83;27566;-77
2021/09/25 00:08:05;;;;;;;19.52;6.00;;;;;;;12.79;84.54;100251.11;1675911;83;25897;-77
2021/09/25 00:10:34;;;;;;;16.93;6.50;;;;;;;12.82;84.65;100254.73;1661662;83;25825;-77
2021/09/25 00:13:02;;;;;;;21.45;6.35;;;;;;;12.85;84.79;100255.67;1672781;84;25861;-77
2021/09/25 00:15:30;;;;;;;14.63;5.22;;;;;;;12.89;85.04;100256.39;1717647;83;25731;-77
2021/09/25 00:17:59;;;;;;;19.00;5.58;;;;;;;12.93;85.89;100254.09;1653223;84;27350;-77
2021/09/25 00:20:26;;;;;;;14.33;5.10;;;;;;;12.96;86.06;100251.80;1659106;83;26540;-77
2021/09/25 00:22:54;;;;;;;18.95;5.80;;;;;;;13.00;86.03;100249.55;1679468;83;26505;-77
2021/09/25 00:25:21;;;;;;;13.18;5.50;;;;;;;13.03;85.99;100244.56;1703613;83;25782;-78
2021/09/25 00:27:48;;;;;;;15.15;5.60;;;;;;;13.06;86.26;100246.87;1683452;83;25821;-77
2021/09/25 00:30:16;;;;;;;14.60;5.33;;;;;;;13.08;85.96;100248.83;1651116;83;27648;-77
2021/09/25 00:32:43;;;;;;;13.48;6.65;;;;;;;13.13;86.61;100254.89;1680615;84;26146;-78
2021/09/25 00:35:12;;;;;;;19.50;7.37;;;;;;;13.15;86.49;100253.64;1701975;83;25827;-77
2021/09/25 00:37:40;;;;;;;16.97;6.03;;;;;;;13.18;86.52;100259.12;1705786;81;26215;-78
2021/09/25 00:40:10;;;;;;;18.02;6.08;;;;;;;13.22;86.44;100253.63;1682275;81;25812;-78
2021/09/25 00:42:37;;;;;;;19.62;6.58;;;;;;;13.26;86.68;100255.39;1737778;81;27517;-77
2021/09/25 00:45:07;;;;;;;15.65;6.35;;;;;;;13.29;86.83;100253.61;1729924;81;25863;-77
2021/09/25 00:47:35;;;;;;;11.35;6.10;;;;;;;13.33;87.01;100254.83;1705945;81;25927;-77
2021/09/25 00:50:05;;;;;;;18.40;5.15;;;;;;;13.36;86.97;100245.00;1680217;82;26482;-78
2021/09/25 00:52:32;;;;;;;10.00;4.58;;;;;;;13.39;87.06;100248.59;1729922;80;25846;-78
2021/09/25 00:54:59;;;;;;;12.13;5.58;;;;;;;13.42;87.39;100242.80;1761560;80;28040;-77
2021/09/25 00:57:26;;;;;;;13.55;5.67;;;;;;;13.46;88.04;100246.20;1725155;81;25938;-78
2021/09/25 00:59:53;;;;;;;14.93;5.45;;;;;;;13.50;87.64;100240.69;1699766;81;25829;-77
2021/09/25 01:02:21;;;;;;;14.73;5.10;;;;;;;13.54;87.51;100241.08;1710846;81;25732;-78
2021/09/25 01:04:49;;;;;;;11.78;4.50;;;;;;;13.57;87.71;100240.14;1762718;80;25899;-77
2021/09/25 01:07:17;;;;;;;14.73;4.72;;;;;;;13.59;87.44;100238.06;1674896;83;28426;-78
2021/09/25 01:09:44;;;;;;;10.43;4.65;;;;;;;13.63;87.37;100239.28;1710535;82;25808;-77
2021/09/25 01:12:11;;;;;;;10.55;5.03;;;;;;;13.65;87.64;100233.67;1762599;80;26513;-78
2021/09/25 01:14:38;;;;;;;12.47;4.72;;;;;;;13.68;87.75;100234.59;1735249;81;25730;-77
2021/09/25 01:17:09;;;;;;;21.07;8.30;;;;;;;13.69;87.85;100241.11;1668024;81;25928;-78
2021/09/25 01:19:36;;;;;;;15.25;5.28;;;;;;;13.70;87.47;100238.73;1688034;82;27915;-77
2021/09/25 01:22:04;;;;;;;13.58;6.25;;;;;;;13.74;88.03;100239.95;1734233;81;25846;-77
2021/09/25 01:24:33;;;;;;;15.45;6.17;;;;;;;13.75;87.90;100225.43;1697616;82;26220;-77
2021/09/25 01:27:01;;;;;;;10.82;4.45;;;;;;;13.76;87.75;100232.48;1700268;80;26195;-78
2021/09/25 01:29:29;;;;;;;12.00;4.65;;;;;;;13.79;88.03;100232.58;1720006;81;25537;-77
2021/09/25 01:31:56;;;;;;;13.88;5.35;;;;;;;13.79;88.18;100222.61;1722994;81;27560;-78
2021/09/25 01:34:23;;;;;;;8.60;5.30;;;;;;;13.82;88.04;100226.23;1698821;81;26250;-77
2021/09/25 01:36:50;;;;;;;16.35;5.53;;;;;;;13.85;87.91;100231.19;1713681;80;25868;-77
2021/09/25 01:39:17;;;;;;;15.38;5.05;;;;;;;13.87;87.95;100237.70;1707548;80;26154;-77
2021/09/25 01:41:45;;;;;;;10.98;4.60;;;;;;;13.90;88.09;100230.52;1738702;81;26460;-78
2021/09/25 01:44:12;;;;;;;13.00;5.53;;;;;;;13.91;88.07;100229.48;1710747;82;28316;-77
2021/09/25 01:46:39;;;;;;;10.98;4.50;;;;;;;13.92;87.89;100226.56;1669363;82;25857;-77
2021/09/25 01:49:06;;;;;;;9.00;4.70;;;;;;;13.95;87.89;100229.35;1706535;80;25833;-78
2021/09/25 01:51:33;;;;;;;9.93;5.03;;;;;;;13.97;87.91;100228.61;1717664;80;25831;-78
2021/09/25 01:54:00;;;;;;;14.25;4.87;;;;;;;13.97;87.81;100221.05;1758673;80;25867;-78
2021/09/25 01:56:28;;;;;;;9.08;4.67;;;;;;;13.98;88.04;100226.23;1706197;81;27504;-78
2021/09/25 01:58:55;;;;;;;13.28;5.20;;;;;;;13.99;88.22;100221.65;1741371;81;25790;-77
2021/09/25 02:01:22;;;;;;;10.68;4.42;;;;;;;14.01;87.97;100228.48;1659279;82;25887;-78
2021/09/25 02:03:49;;;;;;;8.88;4.85;;;;;;;14.03;88.03;100231.77;1696739;81;25771;-77
2021/09/25 02:06:16;;;;;;;10.58;4.72;;;;;;;14.05;88.08;100230.23;1717126;80;26517;-78
2021/09/25 02:08:45;;;;;;;8.93;5.75;;;;;;;14.06;88.12;100231.35;1723847;81;27463;-77
2021/09/25 02:11:12;;;;;;;11.53;4.80;;;;;;;14.07;88.03;100237.57;1738066;80;25939;-77
2021/09/25 02:13:39;;;;;;;14.00;6.37;;;;;;;14.09;88.11;100232.79;1709897;80;25960;-78
2021/09/25 02:16:06;;;;;;;7.20;4.37;;;;;;;14.11;88.20;100236.09;1710755;80;25819;-77
2021/09/25 02:18:33;;;;;;;12.50;5.25;;;;;;;14.11;88.71;100231.53;1751263;80;26153;-77
2021/09/25 02:21:01;;;;;;;10.95;4.90;;;;;;;14.13;88.21;100234.00;1727514;80;27356;-78
2021/09/25 02:23:28;;;;;;;7.78;4.92;;;;;;;14.15;88.29;100238.13;1709031;80;25916;-77
2021/09/25 02:25:55;;;;;;;11.12;5.10;;;;;;;14.16;88.03;100231.68;1721182;80;25860;-78
2021/09/25 02:28:22;;;;;;;10.10;5.37;;;;;;;14.18;88.09;100227.45;1719885;80;26290;-78
2021/09/25 02:30:49;;;;;;;11.15;5.33;;;;;;;14.18;88.29;100228.25;1702969;82;26577;-78
2021/09/25 02:33:16;;;;;;;12.90;5.50;;;;;;;14.21;88.36;100229.68;1682859;81;27528;-77
2021/09/25 02:35:43;;;;;;;10.93;5.58;;;;;;;14.22;88.38;100222.72;1719652;80;25854;-78
2021/09/25 02:38:11;;;;;;;11.18;5.75;;;;;;;14.22;88.21;100227.30;1689669;82;25758;-77
2021/09/25 02:40:38;;;;;;;10.72;5.60;;;;;;;14.24;88.43;100223.33;1704002;82;26100;-78
2021/09/25 02:43:06;;;;;;;11.85;5.42;;;;;;;14.25;88.29;100224.98;1671376;82;25828;-78
2021/09/25 02:45:34;;;;;;;12.78;5.00;;;;;;;14.26;88.28;100223.96;1697682;82;27463;-78
2021/09/25 02:48:02;;;;;;;6.47;5.67;;;;;;;14.27;88.41;100219.38;1670030;82;26622;-77
2021/09/25 02:50:31;;;;;;;10.25;5.78;;;;;;;14.29;88.51;100210.58;1703563;82;25771;-77
2021/09/25 02:52:58;;;;;;;11.10;5.42;;;;;;;14.30;88.44;100215.77;1670086;83;25922;-77
2021/09/25 02:55:25;;;;;;;11.85;6.22;;;;;;;14.32;88.31;100210.98;1656453;82;25825;-77
2021/09/25 02:57:52;;;;;;;12.82;6.62;;;;;;;14.34;88.42;100210.75;1713581;82;28128;-78
2021/09/25 03:00:22;;;;;;;9.58;5.83;;;;;;;14.35;88.30;100203.78;1696565;81;25915;-78
2021/09/25 03:02:49;;;;;;;8.95;6.03;;;;;;;14.37;88.36;100215.72;1664689;81;26244;-77
2021/09/25 03:05:16;;;;;;;10.88;5.78;;;;;;;14.39;88.20;100216.31;1710500;81;25866;-78
2021/09/25 03:07:43;;;;;;;12.43;6.33;;;;;;;14.41;88.25;100217.72;1742008;81;25844;-77
2021/09/25 03:10:11;;;;;;;13.00;6.97;;;;;;;14.41;88.36;100213.67;1738789;81;27543;-77
2021/09/25 03:12:38;;;;;;;9.45;6.03;;;;;;;14.43;88.40;100219.70;1633966;81;25849;-78
2021/09/25 03:15:08;;;;;;;9.03;6.47;;;;;;;14.44;88.38;100211.91;1660513;81;25845;-78
2021/09/25 03:17:35;;;;;;;15.25;7.62;;;;;;;14.45;88.43;100208.17;1740128;81;25761;-77
2021/09/25 03:20:05;;;;;;;11.85;7.37;;;;;;;14.47;88.42;100212.82;1715972;81;25815;-78
2021/09/25 03:22:32;;;;;;;11.08;6.30;;;;;;;14.49;88.44;100223.37;1717290;81;27470;-78
2021/09/25 03:24:59;;;;;;;13.93;7.10;;;;;;;14.50;88.37;100228.53;1661420;81;25805;-77
2021/09/25 03:27:26;;;;;;;12.03;6.75;;;;;;;14.52;88.54;100221.05;1740300;81;25775;-78
2021/09/25 03:29:53;;;;;;;12.00;6.53;;;;;;;14.54;88.22;100226.23;1682873;83;25874;-78
2021/09/25 03:32:20;;;;;;;13.03;6.78;;;;;;;14.54;88.23;100222.20;1664198;83;26615;-78
2021/09/25 03:34:47;;;;;;;13.25;6.97;;;;;;;14.55;88.36;100220.61;1693082;82;27548;-78
2021/09/25 03:37:14;;;;;;;15.15;7.55;;;;;;;14.57;88.17;100221.22;1694275;81;25827;-77
2021/09/25 03:39:41;;;;;;;11.63;6.97;;;;;;;14.58;88.16;100218.80;1724235;80;25826;-77
2021/09/25 03:42:08;;;;;;;9.90;6.60;;;;;;;14.59;88.17;100225.86;1717430;81;25823;-77
2021/09/25 03:44:36;;;;;;;12.43;7.60;;;;;;;14.62;88.10;100228.64;1711817;80;25868;-78
2021/09/25 03:47:03;;;;;;;11.20;8.43;;;;;;;14.64;88.10;100229.24;1703296;82;27528;-77
2021/09/25 03:49:30;;;;;;;12.47;7.97;;;;;;;14.65;88.09;100235.75;1726294;80;25876;-77
2021/09/25 03:51:57;;;;;;;18.17;7.65;;;;;;;14.67;88.09;100232.31;1702013;81;25535;-78
2021/09/25 03:54:25;;;;;;;16.50;8.63;;;;;;;14.69;88.13;100235.61;1691830;82;25874;-78
2021/09/25 03:56:52;;;;;;;16.12;7.83;;;;;;;14.73;88.11;100241.91;1723658;80;25961;-78
2021/09/25 03:59:19;;;;;;;15.10;9.38;;;;;;;14.74;88.06;100246.24;1723614;80;27347;-78
2021/09/25 04:01:46;;;;;;;14.28;7.95;;;;;;;14.74;87.95;100245.73;1710085;80;25952;-77
2021/09/25 04:04:13;;;;;;;13.95;8.33;;;;;;;14.76;88.11;100242.28;1705318;82;25742;-78
2021/09/25 04:06:40;;;;;;;12.70;8.95;;;;;;;14.77;87.92;100244.47;1728395;81;25640;-78
2021/09/25 04:09:07;;;;;;;12.58;7.20;;;;;;;14.79;87.86;100242.37;1699771;82;25794;-77
2021/09/25 04:11:35;;;;;;;14.03;8.18;;;;;;;14.79;87.89;100242.37;1681590;82;28245;-78
2021/09/25 04:14:03;;;;;;;11.97;8.35;;;;;;;14.78;87.79;100236.69;1709411;81;25882;-77
2021/09/25 04:16:30;;;;;;;13.80;8.28;;;;;;;14.80;87.91;100246.18;1735571;81;25771;-77
2021/09/25 04:18:57;;;;;;;11.10;8.08;;;;;;;14.80;88.02;100247.53;1704760;81;26540;-78
2021/09/25 04:21:24;;;;;;;14.18;7.72;;;;;;;14.80;87.91;100243.48;1695580;81;25772;-78
2021/09/25 04:23:53;;;;;;;15.68;8.35;;;;;;;14.80;87.95;100243.48;1720239;80;28298;-78
2021/09/25 04:26:20;;;;;;;16.67;8.23;;;;;;;14.82;87.87;100243.28;1717618;80;25804;-78
2021/09/25 04:28:47;;;;;;;11.85;8.30;;;;;;;14.83;88.04;100241.70;1705108;80;25960;-78
2021/09/25 04:31:15;;;;;;;14.50;8.73;;;;;;;14.85;87.94;100245.52;1652717;83;25843;-77
2021/09/25 04:33:42;;;;;;;12.65;9.23;;;;;;;14.85;88.07;100244.17;1718526;80;25792;-78
2021/09/25 04:36:09;;;;;;;13.93;9.10;;;;;;;14.87;88.06;100240.20;1707422;82;27602;-78
2021/09/25 04:38:36;;;;;;;15.68;8.70;;;;;;;14.87;88.11;100244.25;1745249;81;26512;-78
2021/09/25 04:41:03;;;;;;;13.72;8.78;;;;;;;14.89;87.99;100239.97;1726172;80;25819;-78
2021/09/25 04:43:30;;;;;;;15.15;8.90;;;;;;;14.91;88.15;100244.62;1710750;81;25872;-78
2021/09/25 04:45:57;;;;;;;14.07;8.35;;;;;;;14.91;88.13;100239.23;1693613;81;25833;-78
2021/09/25 04:48:24;;;;;;;12.07;8.68;;;;;;;14.93;88.06;100253.31;1759799;80;27486;-77
2021/09/25 04:50:51;;;;;;;13.22;8.93;;;;;;;14.94;88.25;100250.92;1770849;80;25276;-78
2021/09/25 04:53:18;;;;;;;15.72;8.63;;;;;;;14.96;88.14;100260.97;1682237;82;25840;-78
2021/09/25 04:55:45;;;;;;;16.50;10.23;;;;;;;14.96;88.06;100254.22;1702497;81;26169;-78
2021/09/25 04:58:13;;;;;;;13.70;9.68;;;;;;;14.98;88.11;100253.48;1750796;80;25811;-78
2021/09/25 05:00:41;;;;;;;15.53;9.85;;;;;;;15.00;88.10;100260.81;1726363;81;27563;-77
2021/09/25 05:03:08;;;;;;;15.80;9.35;;;;;;;15.00;88.22;100260.30;1695268;81;26064;-78
2021/09/25 05:05:35;;;;;;;15.28;9.15;;;;;;;15.01;88.27;100261.94;1713060;80;25746;-78
2021/09/25 05:08:02;;;;;;;17.17;10.08;;;;;;;15.04;88.45;100260.16;1759828;80;26234;-78
2021/09/25 05:10:29;;;;;;;19.85;9.73;;;;;;;15.05;88.26;100259.12;1737756;80;26064;-77
2021/09/25 05:12:56;;;;;;;19.55;10.10;;;;;;;15.08;88.63;100264.56;1686606;83;27581;-78
2021/09/25 05:15:23;;;;;;;18.98;11.12;;;;;;;15.09;88.27;100270.27;1683360;81;26063;-78
2021/09/25 05:17:50;;;;;;;16.15;9.68;;;;;;;15.11;88.18;100270.87;1709979;82;25900;-78
2021/09/25 05:20:17;;;;;;;15.72;9.13;;;;;;;15.13;88.33;100275.52;1730089;82;26474;-78
2021/09/25 05:22:44;;;;;;;18.07;10.00;;;;;;;15.14;88.55;100269.09;1687839;82;25973;-78
2021/09/25 05:25:11;;;;;;;17.82;10.53;;;;;;;15.16;88.44;100273.19;1691528;82;27530;-78
2021/09/25 05:27:39;;;;;;;19.10;11.08;;;;;;;15.19;88.32;100274.62;1726337;82;25775;-78
2021/09/25 05:30:10;;;;;;;15.83;10.60;;;;;;;15.21;88.28;100274.70;1732215;82;25876;-78
2021/09/25 05:32:37;;;;;;;20.77;11.83;;;;;;;15.21;88.62;100281.96;1663802;82;25998;-78
2021/09/25 05:35:05;;;;;;;18.17;11.73;;;;;;;15.22;88.57;100277.71;1685683;82;25908;-78
2021/09/25 05:37:32;;;;;;;21.73;13.25;;;;;;;15.23;88.41;100281.21;1708679;82;28208;-78
2021/09/25 05:39:59;;;;;;;18.05;11.88;;;;;;;15.26;88.37;100284.82;1704753;82;25855;-78
2021/09/25 05:42:28;;;;;;;19.57;12.25;;;;;;;15.27;88.32;100280.54;1712199;82;25840;-78
2021/09/25 05:44:56;;;;;;;16.32;11.22;;;;;;;15.29;88.43;100283.84;1689928;83;25773;-78
2021/09/25 05:47:24;;;;;;;14.80;11.30;;;;;;;15.31;88.36;100281.73;1710200;82;26571;-78
2021/09/25 05:49:51;;;;;;;22.98;12.53;;;;;;;15.32;88.43;100272.61;1732090;82;28350;-78
2021/09/25 05:52:20;;;;;;;19.27;11.48;;;;;;;15.34;88.45;100275.07;1662691;82;25845;-77
2021/09/25 05:54:47;;;;;;;23.62;13.32;;;;;;;15.36;88.38;100278.37;1689595;82;26222;-78
2021/09/25 05:57:14;;;;;;;19.95;12.10;;;;;;;15.39;88.69;100276.06;1711821;82;25848;-78
2021/09/25 05:59:41;;;;;;;21.62;13.25;;;;;;;15.41;88.87;100275.31;1729356;82;26049;-78
2021/09/25 06:02:09;;;;;;;22.05;12.18;;;;;;;15.44;88.61;100274.04;1663145;82;27559;-78
2021/09/25 06:04:36;;;;;;;20.82;11.45;;;;;;;15.47;88.51;100276.81;1684688;82;26591;-78
2021/09/25 06:07:05;;;;;;;23.05;12.65;;;;;;;15.50;88.52;100278.56;1704890;82;26523;-77
2021/09/25 06:09:32;;;;;;;19.50;12.00;;;;;;;15.51;88.57;100276.14;1735889;82;26562;-78
2021/09/25 06:11:59;;;;;;;17.77;11.78;;;;;;;15.53;88.56;100280.79;1659736;82;25944;-78
2021/09/25 06:14:26;;;;;;;18.27;10.72;;;;;;;15.56;88.54;100278.16;1690416;82;27550;-77
2021/09/25 06:16:53;;;;;;;18.85;12.20;;;;;;;15.59;88.60;100283.92;1735521;82;26004;-78
2021/09/25 06:19:20;;;;;;;19.52;12.95;;;;;;;15.63;88.50;100276.22;1710188;82;25732;-78
2021/09/25 06:21:47;;;;;;;20.90;12.90;;;;;;;15.68;88.53;100287.97;1671667;83;25758;-78
2021/09/25 06:24:14;;;;;;;18.57;12.45;;;;;;;15.71;88.47;100290.75;1686436;83;25983;-77
2021/09/25 06:26:41;;;;;;;18.20;12.00;;;;;;;15.73;88.48;100285.94;1728927;82;27528;-78
2021/09/25 06:29:08;;;;;;;20.12;12.88;;;;;;;15.75;88.62;100287.89;1731400;82;25823;-78
2021/09/25 06:31:35;;;;;;;19.48;12.15;;;;;;;15.77;88.49;100286.61;1709258;82;25737;-78
2021/09/25 06:34:03;;;;;;;18.15;12.80;;;;;;;15.81;88.41;100293.72;1691357;82;25794;-78
2021/09/25 06:36:32;;;;;;;25.25;14.20;;;;;;;15.82;88.33;100289.98;1731759;82;25826;-78
2021/09/25 06:39:00;;;;;;;17.50;11.95;;;;;;;15.85;88.36;100297.09;1713932;82;27613;-78
2021/09/25 06:41:28;;;;;;;18.05;13.00;;;;;;;15.87;88.29;100294.98;1674467;83;26515;-78
2021/09/25 06:43:55;;;;;;;24.05;13.88;;;;;;;15.90;88.40;100298.59;1686290;83;25863;-78
2021/09/25 06:46:22;;;;;;;22.07;13.13;;;;;;;15.94;88.33;100297.08;1730071;82;26517;-78
2021/09/25 06:48:49;;;;;;;18.52;11.90;;;;;;;15.97;88.24;100303.36;1713094;82;25808;-78
2021/09/25 06:51:17;;;;;;;18.17;12.75;;;;;;;16.00;88.12;100292.62;1682200;82;27582;-78
2021/09/25 06:53:44;;;;;;;30.40;16.60;;;;;;;16.01;88.05;100299.17;1713031;82;25931;-77
2021/09/25 06:56:11;;;;;;;19.55;12.85;;;;;;;16.02;87.96;100296.75;1742568;81;25794;-78
2021/09/25 06:58:39;;;;;;;17.73;12.37;;;;;;;16.04;87.97;100308.67;1750698;80;25750;-78
2021/09/25 07:01:06;;;;;;;19.23;13.28;;;;;;;16.07;87.97;100313.11;1696295;80;25910;-78
2021/09/25 07:03:33;;;;;;;20.30;13.75;;;;;;;16.12;88.18;100308.37;1696418;81;27266;-78
2021/09/25 07:06:00;;;;;;;20.25;14.23;;;;;;;16.16;88.04;100313.09;1712218;81;25855;-78
2021/09/25 07:08:27;;;;;;;19.42;13.60;;;;;;;16.20;88.04;100310.23;1753548;80;26449;-78
2021/09/25 07:10:54;;;;;;;20.57;13.75;;;;;;;16.25;87.92;100316.81;1699917;82;26165;-78
2021/09/25 07:13:22;;;;;;;21.42;12.60;;;;;;;16.30;87.84;100317.76;1658913;81;25838;-78
2021/09/25 07:15:49;;;;;;;19.95;12.25;;;;;;;16.35;87.94;100323.83;1732200;81;27402;-77
2021/09/25 07:18:16;;;;;;;21.73;14.30;;;;;;;16.41;87.83;100322.38;1705352;81;26637;-78
2021/09/25 07:20:43;;;;;;;18.65;14.38;;;;;;;16.45;87.58;100319.51;1687045;81;25891;-79
2021/09/25 07:23:10;;;;;;;14.40;12.28;;;;;;;16.48;87.37;100323.63;1719772;79;25815;-78
2021/09/25 07:25:39;;;;;;;20.97;13.80;;;;;;;16.50;87.37;100326.95;1734478;79;25939;-78
2021/09/25 07:28:09;;;;;;;22.00;13.75;;;;;;;16.51;87.30;100325.36;1751981;79;28146;-78
2021/09/25 07:30:39;;;;;;;20.27;13.68;;;;;;;16.51;87.29;100328.07;1708706;79;25916;-78
2021/09/25 07:33:07;;;;;;;18.12;12.65;;;;;;;16.53;87.38;100326.52;1730125;81;25961;-78
2021/09/25 07:35:35;;;;;;;18.73;13.90;;;;;;;16.54;87.47;100330.33;1764231;79;26071;-78
2021/09/25 07:38:05;;;;;;;17.57;13.50;;;;;;;16.57;87.36;100326.34;1736721;81;25932;-78
2021/09/25 07:40:34;;;;;;;20.35;12.98;;;;;;;16.56;87.46;100330.08;1712885;81;27568;-78
2021/09/25 07:43:01;;;;;;;22.48;13.83;;;;;;;16.55;87.30;100332.51;1681686;81;25921;-78
2021/09/25 07:45:29;;;;;;;22.22;13.62;;;;;;;16.55;87.52;100340.06;1707797;80;25926;-77
2021/09/25 07:47:56;;;;;;;21.10;14.85;;;;;;;16.57;87.84;100340.66;1760011;80;26058;-77
2021/09/25 07:50:23;;;;;;;22.25;15.55;;;;;;;16.57;88.18;100343.91;1666645;81;26483;-78
2021/09/25 07:52:55;;;;;;;19.65;14.55;;;;;;;16.52;88.53;100351.36;1689977;82;27486;-78
2021/09/25 07:55:19;;;;;;;21.45;16.35;;;;;;;16.48;89.28;100350.16;1751856;80;25852;-78
2021/09/25 07:57:46;;;;;;;23.55;15.88;;;;;;;16.42;89.41;100359.19;1743556;80;26230;-78
2021/09/25 08:00:15;;;;;;;25.80;17.73;;;;;;;16.39;89.90;100360.98;1699628;81;25846;-78
2021/09/25 08:02:43;;;;;;;26.65;16.85;;;;;;;16.35;90.01;100360.33;1707619;83;26508;-78
2021/09/25 08:05:12;;;;;;;25.48;16.12;;;;;;;16.34;90.23;100361.39;1697884;83;28275;-77
2021/09/25 08:07:39;;;;;;;24.98;15.95;;;;;;;16.29;90.32;100364.78;1719474;81;26276;-78
2021/09/25 08:10:09;;;;;;;20.85;14.75;;;;;;;16.28;90.57;100364.47;1685586;81;26533;-78
2021/09/25 08:12:37;;;;;;;23.03;16.50;;;;;;;16.28;91.22;100360.93;1698025;80;25900;-78
2021/09/25 08:15:07;;;;;;;21.10;15.93;;;;;;;16.25;90.91;100370.88;1717068;80;26403;-77
2021/09/25 08:17:34;;;;;;;25.48;18.00;;;;;;;16.25;90.97;100369.52;1754812;80;27452;-78
2021/09/25 08:20:03;;;;;;;21.70;16.82;;;;;;;16.24;91.39;100370.04;1692801;81;26729;-78
2021/09/25 08:22:30;;;;;;;22.20;16.87;;;;;;;16.23;91.36;100374.61;1693127;80;25937;-77
2021/09/25 08:24:57;;;;;;;25.32;17.07;;;;;;;16.23;91.41;100374.61;1707971;82;26718;-78
2021/09/25 08:27:24;;;;;;;22.82;16.17;;;;;;;16.23;91.61;100375.96;1738230;81;25908;-78
2021/09/25 08:29:51;;;;;;;23.00;16.20;;;;;;;16.23;91.57;100372.42;1698249;81;28214;-78
2021/09/25 08:32:18;;;;;;;20.37;16.17;;;;;;;16.24;92.15;100375.44;1705329;80;25917;-78
2021/09/25 08:34:45;;;;;;;23.85;16.60;;;;;;;16.25;91.64;100374.92;1718585;80;25787;-78
2021/09/25 08:37:15;;;;;;;24.05;16.87;;;;;;;16.29;92.06;100382.35;1748078;80;25835;-78
2021/09/25 08:39:43;;;;;;;23.73;16.40;;;;;;;16.31;92.10;100376.70;1691573;81;25892;-77
2021/09/25 08:42:17;;;;;;;23.18;16.73;;;;;;;16.34;92.10;100386.52;1693159;81;27492;-78
2021/09/25 08:44:52;;;;;;;24.05;16.93;;;;;;;16.38;92.12;100383.66;1722062;81;25876;-78
2021/09/25 08:47:22;;;;;;;20.80;15.50;;;;;;;16.41;92.22;100387.78;1714009;82;25831;-78
2021/09/25 08:49:49;;;;;;;24.90;17.55;;;;;;;16.41;92.60;100389.97;1725269;81;25878;-78
2021/09/25 08:52:17;;;;;;;22.42;16.10;;;;;;;16.44;93.17;100397.63;1695466;81;25302;-78
2021/09/25 08:54:45;;;;;;;27.82;17.35;;;;;;;16.44;92.93;100396.80;1668375;83;28365;-77
2021/09/25 08:57:12;;;;;;;21.27;17.17;;;;;;;16.45;93.49;100392.50;1694828;81;25838;-78
2021/09/25 08:59:39;;;;;;;22.40;17.70;;;;;;;16.47;93.62;100387.69;1700799;81;25835;-77
2021/09/25 09:02:17;;;;;;;24.27;17.57;;;;;;;16.50;94.16;100387.80;1698540;83;25562;-78
2021/09/25 09:04:51;;;;;;;26.35;18.82;;;;;;;16.57;94.14;100382.58;1724948;81;25951;-78
2021/09/25 09:07:25;;;;;;;23.80;17.82;;;;;;;16.69;94.29;100388.02;1701255;81;27571;-78
2021/09/25 09:09:53;;;;;;;25.55;18.35;;;;;;;16.79;94.24;100389.63;1694288;81;26446;-77
2021/09/25 09:12:28;;;;;;;24.35;18.25;;;;;;;16.89;94.13;100391.26;1700893;81;25771;-78
2021/09/25 09:14:56;;;;;;;28.23;18.05;;;;;;;16.92;93.93;100392.95;1677850;81;25879;-78
2021/09/25 09:17:29;;;;;;;23.77;17.62;;;;;;;16.93;93.27;100391.91;1729125;81;25745;-78
2021/09/25 09:19:57;;;;;;;25.57;17.98;;;;;;;16.98;93.35;100393.89;1711155;82;27555;-78
2021/09/25 09:22:25;;;;;;;26.50;18.27;;;;;;;16.99;93.38;100405.03;1680837;81;26016;-78
2021/09/25 09:24:55;;;;;;;25.75;18.95;;;;;;;17.02;93.24;100391.56;1665120;83;25648;-78
2021/09/25 09:27:26;;;;;;;23.92;18.65;;;;;;;17.04;93.25;100392.98;1694758;81;26208;-78
2021/09/25 09:30:14;;;;;;;26.15;18.20;;;;;;;17.06;93.18;100396.28;1723916;81;25805;-78
2021/09/25 09:32:48;;;;;;;23.67;16.05;;;;;;;17.08;93.06;100402.28;1685071;81;28144;-78
2021/09/25 09:35:19;;;;;;;25.12;17.48;;;;;;;17.08;92.77;100404.16;1689882;81;25835;-78
2021/09/25 09:37:47;;;;;;;22.52;16.25;;;;;;;17.08;92.76;100395.52;1728650;81;25312;-78
2021/09/25 09:40:15;;;;;;;21.77;17.20;;;;;;;17.10;92.91;100400.17;1694423;82;25849;-78
2021/09/25 09:42:48;;;;;;;24.98;17.50;;;;;;;17.12;92.41;100401.27;1657130;81;26667;-78
2021/09/25 09:45:27;;;;;;;25.08;18.60;;;;;;;17.14;92.41;100395.93;1692589;81;28189;-78
2021/09/25 09:47:57;;;;;;;27.58;18.80;;;;;;;17.15;92.36;100394.05;1747106;80;25918;-77
2021/09/25 09:50:24;;;;;;;24.87;18.82;;;;;;;17.14;92.19;100391.04;1708257;82;25889;-78
2021/09/25 09:52:52;;;;;;;22.70;18.02;;;;;;;17.14;92.15;100398.63;1677339;81;26607;-78
2021/09/25 09:55:24;;;;;;;26.37;19.40;;;;;;;17.18;92.25;100398.98;1675070;81;25959;-78
2021/09/25 09:58:05;;;;;;;24.20;18.75;;;;;;;17.20;92.16;100397.69;1717460;81;27476;-80
2021/09/25 10:00:33;;;;;;;30.12;20.25;;;;;;;17.24;92.11;100395.33;1729190;80;26581;-77
2021/09/25 10:03:01;;;;;;;24.57;17.92;;;;;;;17.26;91.89;100394.56;1666958;83;25636;-78
2021/09/25 10:05:29;;;;;;;23.42;18.05;;;;;;;17.28;91.75;100401.95;1719428;80;26171;-78
2021/09/25 10:07:56;;;;;;;18.57;15.20;;;;;;;17.33;91.57;100397.47;1742616;81;25818;-78
2021/09/25 10:10:24;;;;;;;22.15;16.12;;;;;;;17.41;91.55;100403.04;1714588;81;27160;-78
2021/09/25 10:12:54;;;;;;;20.05;14.38;;;;;;;17.51;91.64;100402.77;1702329;81;25918;-78
2021/09/25 10:15:21;;;;;;;16.52;12.68;;;;;;;17.62;91.23;100399.80;1700363;81;25825;-78
2021/09/25 10:17:49;;;;;;;17.32;13.43;;;;;;;17.68;90.65;100396.92;1748402;80;26200;-78
2021/09/25 10:20:16;;;;;;;19.35;13.05;;;;;;;17.75;90.48;100400.06;1751888;80;25328;-77
2021/09/25 10:22:45;;;;;;;21.30;14.10;;;;;;;17.81;90.54;100404.52;1690454;80;28392;-78
2021/09/25 10:25:16;;;;;;;17.50;13.05;;;;;;;17.88;90.28;100404.67;1727199;81;25859;-78
2021/09/25 10:27:47;;;;;;;19.07;13.58;;;;;;;17.91;88.73;100408.27;1752430;80;25894;-78
2021/09/25 10:30:15;;;;;;;18.02;12.65;;;;;;;17.91;88.73;100408.27;1724624;80;25824;-78
2021/09/25 10:32:48;;;;;;;18.05;13.48;;;;;;;17.96;89.07;100403.50;1708070;80;25620;-78
2021/09/25 10:35:22;;;;;;;18.67;12.75;;;;;;;18.04;89.43;100410.72;1699582;80;27579;-77
2021/09/25 10:37:53;;;;;;;18.20;11.57;;;;;;;18.15;89.20;100403.62;1746687;80;25804;-78
2021/09/25 10:40:24;;;;;;;13.05;10.85;;;;;;;18.27;89.09;100409.81;1710694;82;25803;-78
2021/09/25 10:43:00;;;;;;;11.25;9.60;;;;;;;18.35;87.97;100402.64;1692712;82;26252;-78
2021/09/25 10:45:34;;;;;;;10.75;8.40;;;;;;;18.41;86.76;100410.63;1732833;82;25797;-78
2021/09/25 10:48:21;;;;;;;12.43;8.48;;;;;;;18.46;86.66;100417.55;1713183;81;27498;-78
2021/09/25 10:50:53;;;;;;;10.82;8.53;;;;;;;18.55;86.97;100422.58;1685231;82;25878;-79
2021/09/25 10:53:37;;;;;;;9.83;7.28;;;;;;;18.58;86.07;100426.18;1698905;83;25681;-78
2021/09/25 10:56:19;;;;;;;12.33;9.05;;;;;;;18.55;85.01;100425.30;1703180;81;26237;-78
2021/09/25 10:59:06;;;;;;;10.00;7.47;;;;;;;18.53;85.18;100422.83;1708106;82;25855;-78
2021/09/25 11:01:36;;;;;;;10.72;7.70;;;;;;;18.57;85.22;100423.16;1708847;82;26927;-78
2021/09/25 11:04:20;;;;;;;10.83;7.50;;;;;;;18.58;83.83;100424.30;1678477;82;26259;-78
2021/09/25 11:06:56;;;;;;;10.30;6.95;;;;;;;18.60;83.08;100425.40;1708174;82;25942;-77
2021/09/25 11:09:41;;;;;;;10.63;7.33;;;;;;;18.64;83.18;100429.27;1730745;81;25801;-78
2021/09/25 11:12:15;;;;;;;10.10;7.10;;;;;;;18.70;82.88;100425.05;1721334;80;26510;-79
2021/09/25 11:14:46;;;;;;;7.78;6.67;;;;;;;18.78;82.04;100425.17;1705051;81;28010;-78
2021/09/25 11:17:21;;;;;;;10.18;7.08;;;;;;;18.84;82.49;100426.38;1701731;81;25832;-78
2021/09/25 11:19:56;;;;;;;10.05;7.67;;;;;;;18.89;81.85;100430.55;1742712;80;25792;-78